Dallas Fort Worth International Airport
KDFW : now visible

Airfield :











YOU CAN JOIN US ON...

 
LOGIN :

Register | Disclaimer

   EN    FR    IT 

 









Legend :    VFR   Marginal VFR   IFR   Intensive IFR   Very Intensive IFR
Visi :
Ceiling :
>= 8 km
>= 3000ft
5 to 8 km
1000 to 3000 ft
1500m to 5 km
500 to 1000 ft
800 to 1500m
200 to 500 ft
< 800m
< 200 ft
Symbols :   Thunderstorms  Fog  Heavy snow  Heavy precipitations  Wind > 20 kt






- Airport Elevation : 607 ft
- IATA code : DFW


KDFW - Dallas Fort Worth International

CURRENT METAR :
  • 161125Z 13008KT 6SM -TSRA BR OVC004CB 14/13 A2979 RMK AO2 LTG DSNT SE AND SW RAB07 TSE1058B05 OCNL LTGIC E TS E MOV E P0014 T01390133

EXPIRED METARs :
  • 161117Z 13004KT 2SM +TSRA BR OVC004CB 14/13 A2981 RMK AO2 RAB07 TSE1058B05 OCNL LTGIC OHD TS OHD MOV E P0013 T01390133
  • 161107Z 13007KT 6SM -TSRA BR OVC004CB 14/13 A2982 RMK AO2 LTG DSNT SW RAB07 TSE1058B05 OCNL LTGIC SW-NW TS SW-NW MOV E P0000 T01390133
  • 161057Z 12006KT 6SM BR OVC004 14/13 A2982 RMK AO2 T01390133
  • 160953Z 11009KT 8SM OVC006 14/13 A2982 RMK AO2 SLP096 T01390133
  • 160853Z 10004KT 8SM OVC007 14/13 A2984 RMK AO2 SLP102 60002 T01390133 55018

TAF KDFW
Valid from the 16 at 12:00 until the 17 at 18:00 UTC


161120Z 1612/1718 11009KT 3SM -SHRA BR VCTS OVC005CB
TEMPO 1612/1616 2SM -TSRA BR OVC004CB
FM161800 12010KT 5SM BR VCSH OVC007
FM162000 09008KT 6SM BR OVC008
FM162200 01007KT P6SM OVC009
FM170000 35015G25KT P6SM OVC012
FM171000 34011KT P6SM SCT025 BKN080
KZFW FIR / North America



MET'MAP, your aeronautical weather chart ! - Copyright ORBIFLY December 2007 - Disclaimer

ORBIFLY MET'MAP TEAM :

Programming & Development : Alexandra Zaïnal
Concept & original design : Baudouin d'Aumeries
Assistance for programming : Marc-Olivier Méhu
Technical & hardware support : Manuel Goepfert

Contact : metmap@orbifly.com




SOURCES & CREDITS :

   NOAA       Earth
Advisory